KELN

Bowers Field Airport

Ellensburg, Washington, USA
METAR KELN 231553Z AUTO 00000KT 6SM HZ CLR 04/01 A2996 RMK AO2 SLP153 T00390011
Observed Flight Rules
Oct-23 @ 15:53 UTC (31 minutes ago) Visual Flight Rules
Visibility Clouds Conditions
6 miles
  • Clear skies
  • Haze
Temperatures Readings
Current 4°C / 39°F
Dewpoint 1°C / 34°F
Humidity 81%
Altimeter 29.96" Hg
Pressure 1015.3 hPa
Elevation 519
METAR KELN 231553Z AUTO 00000KT 6SM HZ CLR 04/01 A2996 RMK AO2 SLP153 T00390011
Observed Flight Rules
Oct-23 @ 15:53 UTC
(31 minutes ago)
VFR
Clouds
  • Clear skies
Conditions
  • Haze
Temperature Dewpoint
4°C / 39°F 1°C / 34°F
Humidity Altimeter Pressure
81% 29.96" Hg 1015.3 hPa